sensor_id;sensor_type;location;lat;lon;timestamp;pressure;altitude;pressure_sealevel;temperature;humidity
4143;BME280;2085;51.052;6.958;2022-09-02T00:01:36;101302.03;;;18.81;46.21
4143;BME280;2085;51.052;6.958;2022-09-02T00:04:06;101304.78;;;18.80;46.48
4143;BME280;2085;51.052;6.958;2022-09-02T00:06:34;101305.91;;;18.77;46.42
4143;BME280;2085;51.052;6.958;2022-09-02T00:09:02;101306.84;;;18.76;46.43
4143;BME280;2085;51.052;6.958;2022-09-02T00:11:30;101306.00;;;18.76;46.31
4143;BME280;2085;51.052;6.958;2022-09-02T00:13:59;101306.00;;;18.76;46.21
4143;BME280;2085;51.052;6.958;2022-09-02T00:16:27;101307.09;;;18.73;46.50
4143;BME280;2085;51.052;6.958;2022-09-02T00:18:58;101308.16;;;18.70;46.48
4143;BME280;2085;51.052;6.958;2022-09-02T00:21:25;101302.91;;;18.69;46.20
4143;BME280;2085;51.052;6.958;2022-09-02T00:23:52;101295.91;;;18.68;46.55
4143;BME280;2085;51.052;6.958;2022-09-02T00:26:18;101285.25;;;18.68;46.55
4143;BME280;2085;51.052;6.958;2022-09-02T00:28:45;101293.34;;;18.66;46.20
4143;BME280;2085;51.052;6.958;2022-09-02T00:31:12;101291.53;;;18.67;46.18
4143;BME280;2085;51.052;6.958;2022-09-02T00:33:39;101286.91;;;18.69;46.38
4143;BME280;2085;51.052;6.958;2022-09-02T00:36:08;101284.25;;;18.69;46.17
4143;BME280;2085;51.052;6.958;2022-09-02T00:38:35;101290.56;;;18.68;46.34
4143;BME280;2085;51.052;6.958;2022-09-02T00:41:06;101296.75;;;18.68;46.28
4143;BME280;2085;51.052;6.958;2022-09-02T00:43:40;101286.19;;;18.67;46.15
4143;BME280;2085;51.052;6.958;2022-09-02T00:46:07;101295.16;;;18.66;46.52
4143;BME280;2085;51.052;6.958;2022-09-02T00:48:36;101290.78;;;18.65;46.54
4143;BME280;2085;51.052;6.958;2022-09-02T00:51:06;101291.78;;;18.64;46.51
4143;BME280;2085;51.052;6.958;2022-09-02T00:53:34;101286.66;;;18.61;46.30
4143;BME280;2085;51.052;6.958;2022-09-02T00:56:04;101285.06;;;18.58;46.49
4143;BME280;2085;51.052;6.958;2022-09-02T00:58:32;101281.66;;;18.56;46.30
4143;BME280;2085;51.052;6.958;2022-09-02T01:01:00;101284.56;;;18.53;46.59
4143;BME280;2085;51.052;6.958;2022-09-02T01:03:29;101285.41;;;18.54;46.42
4143;BME280;2085;51.052;6.958;2022-09-02T01:05:57;101284.75;;;18.50;46.30
4143;BME280;2085;51.052;6.958;2022-09-02T01:08:25;101290.31;;;18.47;46.53
4143;BME280;2085;51.052;6.958;2022-09-02T01:10:56;101287.00;;;18.44;46.41
4143;BME280;2085;51.052;6.958;2022-09-02T01:13:24;101279.97;;;18.43;46.45
4143;BME280;2085;51.052;6.958;2022-09-02T01:15:54;101279.25;;;18.41;46.83
4143;BME280;2085;51.052;6.958;2022-09-02T01:18:23;101280.09;;;18.41;46.52
4143;BME280;2085;51.052;6.958;2022-09-02T01:20:50;101277.53;;;18.40;46.44
4143;BME280;2085;51.052;6.958;2022-09-02T01:23:18;101282.88;;;18.40;46.45
4143;BME280;2085;51.052;6.958;2022-09-02T01:25:45;101283.84;;;18.39;46.47
4143;BME280;2085;51.052;6.958;2022-09-02T01:28:15;101283.13;;;18.37;46.61
4143;BME280;2085;51.052;6.958;2022-09-02T01:30:44;101276.94;;;18.36;46.87
4143;BME280;2085;51.052;6.958;2022-09-02T01:33:11;101276.19;;;18.34;46.57
4143;BME280;2085;51.052;6.958;2022-09-02T01:35:38;101280.03;;;18.30;46.58
4143;BME280;2085;51.052;6.958;2022-09-02T01:38:05;101271.31;;;18.28;46.64
4143;BME280;2085;51.052;6.958;2022-09-02T01:40:34;101273.13;;;18.27;46.82
4143;BME280;2085;51.052;6.958;2022-09-02T01:43:03;101275.03;;;18.25;46.76
4143;BME280;2085;51.052;6.958;2022-09-02T01:45:31;101268.97;;;18.23;46.92
4143;BME280;2085;51.052;6.958;2022-09-02T01:47:58;101268.13;;;18.23;46.93
4143;BME280;2085;51.052;6.958;2022-09-02T01:50:25;101269.19;;;18.20;46.97
4143;BME280;2085;51.052;6.958;2022-09-02T01:52:51;101268.47;;;18.18;47.02
4143;BME280;2085;51.052;6.958;2022-09-02T01:55:18;101271.13;;;18.18;46.74
4143;BME280;2085;51.052;6.958;2022-09-02T01:57:46;101269.41;;;18.17;46.93
4143;BME280;2085;51.052;6.958;2022-09-02T02:00:14;101262.47;;;18.15;46.88
4143;BME280;2085;51.052;6.958;2022-09-02T02:02:41;101267.94;;;18.13;46.91
4143;BME280;2085;51.052;6.958;2022-09-02T02:05:08;101260.91;;;18.12;46.80
4143;BME280;2085;51.052;6.958;2022-09-02T02:07:35;101262.81;;;18.10;47.05
4143;BME280;2085;51.052;6.958;2022-09-02T02:10:03;101257.50;;;18.10;46.95
4143;BME280;2085;51.052;6.958;2022-09-02T02:12:30;101261.13;;;18.09;46.92
4143;BME280;2085;51.052;6.958;2022-09-02T02:15:00;101255.06;;;18.07;47.06
4143;BME280;2085;51.052;6.958;2022-09-02T02:17:27;101262.31;;;18.05;47.00
4143;BME280;2085;51.052;6.958;2022-09-02T02:19:53;101267.75;;;18.04;46.87
4143;BME280;2085;51.052;6.958;2022-09-02T02:22:20;101273.94;;;18.04;46.56
4143;BME280;2085;51.052;6.958;2022-09-02T02:24:46;101263.28;;;18.04;47.04
4143;BME280;2085;51.052;6.958;2022-09-02T02:27:13;101270.41;;;18.04;46.92
4143;BME280;2085;51.052;6.958;2022-09-02T02:29:40;101274.13;;;18.01;47.02
4143;BME280;2085;51.052;6.958;2022-09-02T02:32:08;101265.31;;;18.01;47.02
4143;BME280;2085;51.052;6.958;2022-09-02T02:34:34;101260.00;;;18.01;47.01
4143;BME280;2085;51.052;6.958;2022-09-02T02:37:01;101267.13;;;18.00;46.96
4143;BME280;2085;51.052;6.958;2022-09-02T02:39:28;101263.72;;;17.98;46.89
4143;BME280;2085;51.052;6.958;2022-09-02T02:41:54;101264.78;;;17.96;47.25
4143;BME280;2085;51.052;6.958;2022-09-02T02:44:21;101263.09;;;17.95;46.95
4143;BME280;2085;51.052;6.958;2022-09-02T02:46:48;101268.41;;;17.95;47.25
4143;BME280;2085;51.052;6.958;2022-09-02T02:49:16;101273.97;;;17.92;47.13
4143;BME280;2085;51.052;6.958;2022-09-02T02:51:43;101268.00;;;17.88;47.20
4143;BME280;2085;51.052;6.958;2022-09-02T02:54:09;101269.16;;;17.84;47.09
4143;BME280;2085;51.052;6.958;2022-09-02T02:56:38;101260.56;;;17.80;47.22
4143;BME280;2085;51.052;6.958;2022-09-02T02:59:05;101261.63;;;17.78;47.21
4143;BME280;2085;51.052;6.958;2022-09-02T03:01:32;101260.16;;;17.74;47.28
4143;BME280;2085;51.052;6.958;2022-09-02T03:03:59;101260.34;;;17.71;47.20
4143;BME280;2085;51.052;6.958;2022-09-02T03:06:27;101257.94;;;17.68;47.30
4143;BME280;2085;51.052;6.958;2022-09-02T03:08:54;101260.81;;;17.65;47.42
4143;BME280;2085;51.052;6.958;2022-09-02T03:11:20;101253.97;;;17.61;47.42
4143;BME280;2085;51.052;6.958;2022-09-02T03:13:49;101264.81;;;17.58;47.43
4143;BME280;2085;51.052;6.958;2022-09-02T03:16:16;101262.38;;;17.55;47.46
4143;BME280;2085;51.052;6.958;2022-09-02T03:18:44;101256.28;;;17.53;47.56
4143;BME280;2085;51.052;6.958;2022-09-02T03:21:11;101259.09;;;17.51;47.33
4143;BME280;2085;51.052;6.958;2022-09-02T03:23:39;101254.72;;;17.50;47.55
4143;BME280;2085;51.052;6.958;2022-09-02T03:26:09;101258.34;;;17.49;47.37
4143;BME280;2085;51.052;6.958;2022-09-02T03:28:36;101256.53;;;17.50;47.65
4143;BME280;2085;51.052;6.958;2022-09-02T03:31:02;101251.28;;;17.48;47.37
4143;BME280;2085;51.052;6.958;2022-09-02T03:33:29;101255.75;;;17.48;47.62
4143;BME280;2085;51.052;6.958;2022-09-02T03:35:56;101254.09;;;17.47;47.61
4143;BME280;2085;51.052;6.958;2022-09-02T03:38:23;101258.44;;;17.48;47.57
4143;BME280;2085;51.052;6.958;2022-09-02T03:40:51;101253.09;;;17.48;47.46
4143;BME280;2085;51.052;6.958;2022-09-02T03:43:17;101254.72;;;17.50;47.51
4143;BME280;2085;51.052;6.958;2022-09-02T03:45:44;101255.56;;;17.51;47.63
4143;BME280;2085;51.052;6.958;2022-09-02T03:48:12;101253.75;;;17.51;47.48
4143;BME280;2085;51.052;6.958;2022-09-02T03:50:40;101243.22;;;17.50;47.73
4143;BME280;2085;51.052;6.958;2022-09-02T03:53:08;101244.25;;;17.47;47.59
4143;BME280;2085;51.052;6.958;2022-09-02T03:55:36;101247.16;;;17.44;47.51
4143;BME280;2085;51.052;6.958;2022-09-02T03:58:04;101248.22;;;17.42;47.34
4143;BME280;2085;51.052;6.958;2022-09-02T04:00:31;101242.28;;;17.38;47.80
4143;BME280;2085;51.052;6.958;2022-09-02T04:02:58;101248.66;;;17.35;47.69
4143;BME280;2085;51.052;6.958;2022-09-02T04:05:26;101245.34;;;17.32;47.61
4143;BME280;2085;51.052;6.958;2022-09-02T04:07:53;101246.41;;;17.29;47.62
4143;BME280;2085;51.052;6.958;2022-09-02T04:10:21;101250.03;;;17.28;47.72
4143;BME280;2085;51.052;6.958;2022-09-02T04:12:48;101245.66;;;17.27;47.88
4143;BME280;2085;51.052;6.958;2022-09-02T04:15:16;101250.13;;;17.27;47.66
4143;BME280;2085;51.052;6.958;2022-09-02T04:21:08;101247.47;;;17.27;47.62
4143;BME280;2085;51.052;6.958;2022-09-02T04:23:35;101241.31;;;17.26;47.83
4143;BME280;2085;51.052;6.958;2022-09-02T04:26:03;101249.28;;;17.26;47.67
4143;BME280;2085;51.052;6.958;2022-09-02T04:28:30;101241.41;;;17.25;47.59
4143;BME280;2085;51.052;6.958;2022-09-02T04:30:58;101239.72;;;17.24;47.97
4143;BME280;2085;51.052;6.958;2022-09-02T04:33:24;101242.47;;;17.22;47.79
4143;BME280;2085;51.052;6.958;2022-09-02T04:35:51;101244.38;;;17.20;47.81
4143;BME280;2085;51.052;6.958;2022-09-02T04:38:18;101238.44;;;17.17;47.82
4143;BME280;2085;51.052;6.958;2022-09-02T04:40:46;101243.97;;;17.14;47.72
4143;BME280;2085;51.052;6.958;2022-09-02T04:43:14;101237.16;;;17.10;47.72
4143;BME280;2085;51.052;6.958;2022-09-02T04:45:42;101243.53;;;17.07;47.79
4143;BME280;2085;51.052;6.958;2022-09-02T04:48:10;101241.09;;;17.04;47.66
4143;BME280;2085;51.052;6.958;2022-09-02T04:50:38;101242.97;;;17.02;47.85
4143;BME280;2085;51.052;6.958;2022-09-02T04:53:06;101248.28;;;17.02;47.94
4143;BME280;2085;51.052;6.958;2022-09-02T04:55:32;101240.22;;;17.04;47.80
4143;BME280;2085;51.052;6.958;2022-09-02T04:57:59;101241.94;;;17.05;47.97
4143;BME280;2085;51.052;6.958;2022-09-02T05:00:26;101239.06;;;17.08;47.82
4143;BME280;2085;51.052;6.958;2022-09-02T05:02:53;101240.75;;;17.09;48.00
4143;BME280;2085;51.052;6.958;2022-09-02T05:05:21;101240.53;;;17.12;48.13
4143;BME280;2085;51.052;6.958;2022-09-02T05:07:47;101241.22;;;17.15;47.99
4143;BME280;2085;51.052;6.958;2022-09-02T05:10:14;101239.28;;;17.17;47.69
4143;BME280;2085;51.052;6.958;2022-09-02T05:12:41;101239.06;;;17.20;48.06
4143;BME280;2085;51.052;6.958;2022-09-02T05:15:09;101241.63;;;17.22;47.92
4143;BME280;2085;51.052;6.958;2022-09-02T05:17:36;101239.72;;;17.24;47.93
4143;BME280;2085;51.052;6.958;2022-09-02T05:20:03;101235.97;;;17.26;48.23
4143;BME280;2085;51.052;6.958;2022-09-02T05:22:32;101236.53;;;17.31;47.92
4143;BME280;2085;51.052;6.958;2022-09-02T05:24:59;101236.09;;;17.37;48.08
4143;BME280;2085;51.052;6.958;2022-09-02T05:27:25;101237.34;;;17.57;47.77
4143;BME280;2085;51.052;6.958;2022-09-02T05:29:54;101241.69;;;17.83;47.43
4143;BME280;2085;51.052;6.958;2022-09-02T05:32:21;101238.34;;;18.05;47.13
4143;BME280;2085;51.052;6.958;2022-09-02T05:34:48;101244.09;;;18.36;46.80
4143;BME280;2085;51.052;6.958;2022-09-02T05:37:15;101239.41;;;18.63;46.69
4143;BME280;2085;51.052;6.958;2022-09-02T05:39:43;101236.81;;;18.85;46.37
4143;BME280;2085;51.052;6.958;2022-09-02T05:42:09;101233.84;;;19.23;45.98
4143;BME280;2085;51.052;6.958;2022-09-02T05:44:36;101232.56;;;19.73;45.63
4143;BME280;2085;51.052;6.958;2022-09-02T05:47:04;101233.44;;;20.28;44.90
4143;BME280;2085;51.052;6.958;2022-09-02T05:49:30;101228.38;;;20.77;44.77
4143;BME280;2085;51.052;6.958;2022-09-02T05:51:58;101226.38;;;21.11;44.09
4143;BME280;2085;51.052;6.958;2022-09-02T05:54:27;101226.56;;;21.40;44.05
4143;BME280;2085;51.052;6.958;2022-09-02T05:56:58;101231.09;;;21.49;43.90
4143;BME280;2085;51.052;6.958;2022-09-02T05:59:27;101226.91;;;21.26;44.08
4143;BME280;2085;51.052;6.958;2022-09-02T06:01:54;101229.41;;;21.18;44.49
4143;BME280;2085;51.052;6.958;2022-09-02T06:04:22;101224.09;;;21.27;45.02
4143;BME280;2085;51.052;6.958;2022-09-02T06:06:50;101226.91;;;21.26;44.90
4143;BME280;2085;51.052;6.958;2022-09-02T06:09:20;101232.34;;;21.15;45.66
4143;BME280;2085;51.052;6.958;2022-09-02T06:11:48;101235.72;;;20.96;45.51
4143;BME280;2085;51.052;6.958;2022-09-02T06:14:17;101237.19;;;20.68;46.06
4143;BME280;2085;51.052;6.958;2022-09-02T06:16:45;101232.91;;;20.45;46.35
4143;BME280;2085;51.052;6.958;2022-09-02T06:19:12;101236.09;;;20.28;46.30
4143;BME280;2085;51.052;6.958;2022-09-02T06:21:39;101227.28;;;20.16;46.60
4143;BME280;2085;51.052;6.958;2022-09-02T06:24:07;101228.50;;;20.12;46.62
4143;BME280;2085;51.052;6.958;2022-09-02T06:26:35;101227.66;;;20.12;46.62
4143;BME280;2085;51.052;6.958;2022-09-02T06:29:03;101224.13;;;20.11;46.75
4143;BME280;2085;51.052;6.958;2022-09-02T06:31:31;101229.09;;;20.16;46.70
4143;BME280;2085;51.052;6.958;2022-09-02T06:33:58;101231.38;;;20.20;46.52
4143;BME280;2085;51.052;6.958;2022-09-02T06:36:27;101229.31;;;20.24;46.38
4143;BME280;2085;51.052;6.958;2022-09-02T06:38:55;101236.22;;;20.26;46.54
4143;BME280;2085;51.052;6.958;2022-09-02T06:41:24;101228.69;;;20.31;46.47
4143;BME280;2085;51.052;6.958;2022-09-02T06:43:54;101230.97;;;20.47;46.27
4143;BME280;2085;51.052;6.958;2022-09-02T06:46:23;101229.81;;;20.61;46.44
4143;BME280;2085;51.052;6.958;2022-09-02T06:48:51;101224.00;;;20.76;46.14
4143;BME280;2085;51.052;6.958;2022-09-02T06:51:19;101226.13;;;20.93;46.44
4143;BME280;2085;51.052;6.958;2022-09-02T06:53:46;101225.53;;;21.11;46.35
4143;BME280;2085;51.052;6.958;2022-09-02T06:56:13;101233.38;;;21.23;46.00
4143;BME280;2085;51.052;6.958;2022-09-02T06:58:39;101229.91;;;21.32;45.84
4143;BME280;2085;51.052;6.958;2022-09-02T07:01:06;101227.81;;;21.36;46.19
4143;BME280;2085;51.052;6.958;2022-09-02T07:03:33;101226.25;;;21.33;46.19
4143;BME280;2085;51.052;6.958;2022-09-02T07:06:19;101227.81;;;21.36;46.24
4143;BME280;2085;51.052;6.958;2022-09-02T07:08:45;101223.19;;;21.38;46.28
4143;BME280;2085;51.052;6.958;2022-09-02T07:11:16;101237.25;;;21.40;46.31
4143;BME280;2085;51.052;6.958;2022-09-02T07:13:43;101227.09;;;21.34;46.06
4143;BME280;2085;51.052;6.958;2022-09-02T07:16:10;101224.78;;;21.20;45.95
4143;BME280;2085;51.052;6.958;2022-09-02T07:18:37;101221.94;;;21.01;46.38
4143;BME280;2085;51.052;6.958;2022-09-02T07:21:06;101217.88;;;20.85;46.66
4143;BME280;2085;51.052;6.958;2022-09-02T07:23:35;101227.06;;;20.72;46.42
4143;BME280;2085;51.052;6.958;2022-09-02T07:26:01;101219.38;;;20.58;46.61
4143;BME280;2085;51.052;6.958;2022-09-02T07:28:28;101220.75;;;20.52;46.90
4143;BME280;2085;51.052;6.958;2022-09-02T07:30:55;101219.38;;;20.58;46.69
4143;BME280;2085;51.052;6.958;2022-09-02T07:33:22;101210.25;;;20.60;46.67
4143;BME280;2085;51.052;6.958;2022-09-02T07:35:49;101215.56;;;20.71;46.80
4143;BME280;2085;51.052;6.958;2022-09-02T07:38:17;101215.59;;;20.81;46.63
4143;BME280;2085;51.052;6.958;2022-09-02T07:40:45;101205.81;;;20.91;46.48
4143;BME280;2085;51.052;6.958;2022-09-02T07:43:13;101209.88;;;21.06;46.34
4143;BME280;2085;51.052;6.958;2022-09-02T07:45:40;101210.13;;;21.24;46.34
4143;BME280;2085;51.052;6.958;2022-09-02T07:48:08;101203.25;;;21.31;46.10
4143;BME280;2085;51.052;6.958;2022-09-02T07:50:35;101203.53;;;21.28;46.15
4143;BME280;2085;51.052;6.958;2022-09-02T07:53:02;101205.75;;;21.23;45.85
4143;BME280;2085;51.052;6.958;2022-09-02T07:55:31;101204.44;;;21.17;46.17
4143;BME280;2085;51.052;6.958;2022-09-02T07:58:01;101203.13;;;21.12;46.01
4143;BME280;2085;51.052;6.958;2022-09-02T08:00:29;101207.53;;;21.13;46.40
4143;BME280;2085;51.052;6.958;2022-09-02T08:02:56;101206.72;;;21.22;45.93
4143;BME280;2085;51.052;6.958;2022-09-02T08:05:23;101200.75;;;21.39;45.94
4143;BME280;2085;51.052;6.958;2022-09-02T08:07:49;101206.03;;;21.50;45.84
4143;BME280;2085;51.052;6.958;2022-09-02T08:10:16;101203.78;;;21.55;45.87
4143;BME280;2085;51.052;6.958;2022-09-02T08:12:45;101198.56;;;21.54;45.83
4143;BME280;2085;51.052;6.958;2022-09-02T08:15:14;101203.78;;;21.55;45.83
4143;BME280;2085;51.052;6.958;2022-09-02T08:17:40;101201.41;;;21.62;46.17
4143;BME280;2085;51.052;6.958;2022-09-02T08:20:09;101207.09;;;21.68;45.75
4143;BME280;2085;51.052;6.958;2022-09-02T08:22:38;101203.88;;;21.74;45.64
4143;BME280;2085;51.052;6.958;2022-09-02T08:25:06;101202.75;;;21.87;45.77
4143;BME280;2085;51.052;6.958;2022-09-02T08:27:33;101204.50;;;22.07;45.67
4143;BME280;2085;51.052;6.958;2022-09-02T08:30:00;101191.25;;;22.24;45.52
4143;BME280;2085;51.052;6.958;2022-09-02T08:32:28;101192.84;;;22.46;45.35
4143;BME280;2085;51.052;6.958;2022-09-02T08:34:57;101191.41;;;22.61;45.13
4143;BME280;2085;51.052;6.958;2022-09-02T08:37:23;101190.59;;;22.71;45.31
4143;BME280;2085;51.052;6.958;2022-09-02T08:39:52;101195.69;;;22.74;45.04
4143;BME280;2085;51.052;6.958;2022-09-02T08:42:22;101191.44;;;22.71;45.33
4143;BME280;2085;51.052;6.958;2022-09-02T08:44:50;101186.91;;;22.72;45.54
4143;BME280;2085;51.052;6.958;2022-09-02T08:47:22;101182.66;;;22.79;45.22
4143;BME280;2085;51.052;6.958;2022-09-02T08:49:54;101180.41;;;22.84;45.12
4143;BME280;2085;51.052;6.958;2022-09-02T08:52:26;101173.75;;;22.88;45.35
4143;BME280;2085;51.052;6.958;2022-09-02T08:54:55;101166.81;;;22.95;45.35
4143;BME280;2085;51.052;6.958;2022-09-02T08:57:22;101172.00;;;23.06;45.29
4143;BME280;2085;51.052;6.958;2022-09-02T08:59:52;101173.81;;;23.15;45.10
4143;BME280;2085;51.052;6.958;2022-09-02T09:02:24;101172.94;;;23.24;44.67
4143;BME280;2085;51.052;6.958;2022-09-02T09:05:11;101171.91;;;23.35;44.75
4143;BME280;2085;51.052;6.958;2022-09-02T09:07:49;101172.88;;;23.43;44.77
4143;BME280;2085;51.052;6.958;2022-09-02T09:10:24;101170.47;;;23.50;44.77
4143;BME280;2085;51.052;6.958;2022-09-02T09:13:13;101166.31;;;23.55;44.60
4143;BME280;2085;51.052;6.958;2022-09-02T09:15:50;101167.44;;;23.63;44.66
4143;BME280;2085;51.052;6.958;2022-09-02T09:18:20;101162.16;;;23.71;44.14
4143;BME280;2085;51.052;6.958;2022-09-02T09:20:51;101159.41;;;23.80;43.94
4143;BME280;2085;51.052;6.958;2022-09-02T09:23:26;101161.31;;;23.88;43.80
4143;BME280;2085;51.052;6.958;2022-09-02T09:25:57;101153.50;;;23.94;43.68
4143;BME280;2085;51.052;6.958;2022-09-02T09:28:28;101156.75;;;23.98;43.74
4143;BME280;2085;51.052;6.958;2022-09-02T09:30:55;101147.22;;;24.04;43.95
4143;BME280;2085;51.052;6.958;2022-09-02T09:33:22;101146.19;;;24.05;43.72
4143;BME280;2085;51.052;6.958;2022-09-02T09:35:52;101138.00;;;24.06;43.73
4143;BME280;2085;51.052;6.958;2022-09-02T09:38:27;101138.69;;;24.08;43.77
4143;BME280;2085;51.052;6.958;2022-09-02T09:41:10;101127.31;;;24.14;43.48
4143;BME280;2085;51.052;6.958;2022-09-02T09:43:39;101126.41;;;24.23;43.48
4143;BME280;2085;51.052;6.958;2022-09-02T09:46:20;101131.94;;;24.39;43.35
4143;BME280;2085;51.052;6.958;2022-09-02T09:48:48;101119.78;;;24.53;43.14
4143;BME280;2085;51.052;6.958;2022-09-02T09:51:17;101119.69;;;24.63;43.03
4143;BME280;2085;51.052;6.958;2022-09-02T09:53:44;101126.13;;;24.70;43.29
4143;BME280;2085;51.052;6.958;2022-09-02T09:56:26;101119.94;;;24.77;43.05
4143;BME280;2085;51.052;6.958;2022-09-02T09:58:54;101115.63;;;24.84;42.67
4143;BME280;2085;51.052;6.958;2022-09-02T10:01:23;101116.38;;;24.95;42.44
4143;BME280;2085;51.052;6.958;2022-09-02T10:03:52;101115.72;;;25.01;42.78
4143;BME280;2085;51.052;6.958;2022-09-02T10:06:24;101116.94;;;25.06;42.72
4143;BME280;2085;51.052;6.958;2022-09-02T10:09:03;101118.31;;;25.10;42.31
4143;BME280;2085;51.052;6.958;2022-09-02T10:11:32;101117.81;;;25.15;42.14
4143;BME280;2085;51.052;6.958;2022-09-02T10:14:00;101120.38;;;25.16;42.20
4143;BME280;2085;51.052;6.958;2022-09-02T10:16:38;101121.38;;;25.15;42.60
4143;BME280;2085;51.052;6.958;2022-09-02T10:19:17;101118.53;;;25.17;42.18
4143;BME280;2085;51.052;6.958;2022-09-02T10:22:04;101114.03;;;25.25;42.31
4143;BME280;2085;51.052;6.958;2022-09-02T10:24:48;101119.44;;;25.33;42.35
4143;BME280;2085;51.052;6.958;2022-09-02T10:27:25;101105.97;;;25.42;41.79
4143;BME280;2085;51.052;6.958;2022-09-02T10:29:58;101098.78;;;25.50;41.70
4143;BME280;2085;51.052;6.958;2022-09-02T10:32:46;101096.16;;;25.66;42.05
4143;BME280;2085;51.052;6.958;2022-09-02T10:35:22;101096.53;;;25.80;41.74
4143;BME280;2085;51.052;6.958;2022-09-02T10:38:02;101099.09;;;25.89;41.79
4143;BME280;2085;51.052;6.958;2022-09-02T10:40:34;101093.69;;;26.05;41.48
4143;BME280;2085;51.052;6.958;2022-09-02T10:43:07;101094.03;;;26.18;41.53
4143;BME280;2085;51.052;6.958;2022-09-02T10:45:39;101088.34;;;26.30;41.08
4143;BME280;2085;51.052;6.958;2022-09-02T10:48:26;101082.44;;;26.34;41.43
4143;BME280;2085;51.052;6.958;2022-09-02T10:51:01;101088.16;;;26.23;41.30
4143;BME280;2085;51.052;6.958;2022-09-02T10:53:52;101084.09;;;26.11;41.44
4143;BME280;2085;51.052;6.958;2022-09-02T10:56:26;101078.19;;;26.15;41.57
4143;BME280;2085;51.052;6.958;2022-09-02T10:58:57;101082.06;;;26.21;40.90
4143;BME280;2085;51.052;6.958;2022-09-02T11:01:29;101078.69;;;26.19;40.96
4143;BME280;2085;51.052;6.958;2022-09-02T11:04:04;101082.56;;;26.08;41.13
4143;BME280;2085;51.052;6.958;2022-09-02T11:06:37;101089.97;;;25.98;41.40
4143;BME280;2085;51.052;6.958;2022-09-02T11:09:08;101082.56;;;26.00;41.33
4143;BME280;2085;51.052;6.958;2022-09-02T11:11:39;101074.13;;;26.03;40.83
4143;BME280;2085;51.052;6.958;2022-09-02T11:14:16;101061.63;;;25.94;40.79
4143;BME280;2085;51.052;6.958;2022-09-02T11:16:50;101069.72;;;25.94;41.29
4143;BME280;2085;51.052;6.958;2022-09-02T11:19:27;101066.22;;;26.10;40.80
4143;BME280;2085;51.052;6.958;2022-09-02T11:22:02;101066.06;;;26.28;40.52
4143;BME280;2085;51.052;6.958;2022-09-02T11:24:35;101058.44;;;26.39;40.78
4143;BME280;2085;51.052;6.958;2022-09-02T11:27:10;101057.75;;;26.53;40.56
4143;BME280;2085;51.052;6.958;2022-09-02T11:29:48;101051.81;;;26.74;40.41
4143;BME280;2085;51.052;6.958;2022-09-02T11:32:25;101043.00;;;26.96;39.83
4143;BME280;2085;51.052;6.958;2022-09-02T11:34:57;101051.72;;;27.06;40.18
4143;BME280;2085;51.052;6.958;2022-09-02T11:37:29;101053.72;;;27.13;40.12
4143;BME280;2085;51.052;6.958;2022-09-02T11:40:02;101050.34;;;27.19;40.01
4143;BME280;2085;51.052;6.958;2022-09-02T11:45:42;101042.91;;;27.43;39.81
4143;BME280;2085;51.052;6.958;2022-09-02T11:51:57;101031.44;;;27.72;39.26
4143;BME280;2085;51.052;6.958;2022-09-02T11:54:30;101038.81;;;27.78;39.44
4143;BME280;2085;51.052;6.958;2022-09-02T11:57:02;101033.72;;;27.83;39.29
4143;BME280;2085;51.052;6.958;2022-09-02T12:00:01;101039.75;;;27.71;39.28
4143;BME280;2085;51.052;6.958;2022-09-02T12:02:35;101033.28;;;27.49;39.39
4143;BME280;2085;51.052;6.958;2022-09-02T12:08:09;101035.81;;;27.20;39.26
4143;BME280;2085;51.052;6.958;2022-09-02T12:10:57;101038.00;;;27.16;39.07
4143;BME280;2085;51.052;6.958;2022-09-02T12:13:35;101039.84;;;27.16;38.88
4143;BME280;2085;51.052;6.958;2022-09-02T12:16:36;101031.16;;;26.97;39.25
4143;BME280;2085;51.052;6.958;2022-09-02T12:19:41;101024.81;;;26.74;39.05
4143;BME280;2085;51.052;6.958;2022-09-02T12:22:37;101023.13;;;26.73;39.09
4143;BME280;2085;51.052;6.958;2022-09-02T12:25:41;101021.91;;;26.76;39.35
4143;BME280;2085;51.052;6.958;2022-09-02T12:28:14;101018.38;;;26.75;39.36
4143;BME280;2085;51.052;6.958;2022-09-02T12:31:09;101013.34;;;26.64;38.96
4143;BME280;2085;51.052;6.958;2022-09-02T12:33:38;101010.03;;;26.46;39.18
4143;BME280;2085;51.052;6.958;2022-09-02T12:36:06;100998.56;;;26.36;38.95
4143;BME280;2085;51.052;6.958;2022-09-02T12:38:35;101011.72;;;26.39;39.17
4143;BME280;2085;51.052;6.958;2022-09-02T12:41:10;101008.81;;;26.48;38.88
4143;BME280;2085;51.052;6.958;2022-09-02T12:43:48;100999.03;;;26.55;39.17
4143;BME280;2085;51.052;6.958;2022-09-02T12:46:21;100992.59;;;26.64;39.00
4143;BME280;2085;51.052;6.958;2022-09-02T12:48:58;100995.75;;;26.76;38.98
4143;BME280;2085;51.052;6.958;2022-09-02T12:51:52;100981.06;;;26.87;38.81
4143;BME280;2085;51.052;6.958;2022-09-02T12:54:24;100984.03;;;27.00;38.33
4143;BME280;2085;51.052;6.958;2022-09-02T12:56:52;100993.44;;;27.12;38.17
4143;BME280;2085;51.052;6.958;2022-09-02T12:59:27;100988.50;;;27.16;38.06
4143;BME280;2085;51.052;6.958;2022-09-02T13:02:09;100991.97;;;27.01;37.95
4143;BME280;2085;51.052;6.958;2022-09-02T13:04:46;100982.56;;;26.89;38.19
4143;BME280;2085;51.052;6.958;2022-09-02T13:07:48;100982.88;;;26.94;38.07
4143;BME280;2085;51.052;6.958;2022-09-02T13:10:37;100972.56;;;26.98;38.16
4143;BME280;2085;51.052;6.958;2022-09-02T13:16:35;100967.94;;;27.15;38.32
4143;BME280;2085;51.052;6.958;2022-09-02T13:19:33;100969.25;;;27.19;38.18
4143;BME280;2085;51.052;6.958;2022-09-02T13:31:18;100951.22;;;27.34;37.42
4143;BME280;2085;51.052;6.958;2022-09-02T13:33:45;100961.50;;;27.38;37.39
4143;BME280;2085;51.052;6.958;2022-09-02T13:36:22;100957.41;;;27.42;37.89
4143;BME280;2085;51.052;6.958;2022-09-02T13:38:50;100950.16;;;27.43;37.69
4143;BME280;2085;51.052;6.958;2022-09-02T13:41:27;100941.09;;;27.36;37.20
4143;BME280;2085;51.052;6.958;2022-09-02T13:44:04;100947.03;;;27.31;37.37
4143;BME280;2085;51.052;6.958;2022-09-02T13:46:31;100941.78;;;27.30;37.43
4143;BME280;2085;51.052;6.958;2022-09-02T13:48:58;100930.81;;;27.31;37.54
4143;BME280;2085;51.052;6.958;2022-09-02T13:51:26;100945.81;;;27.34;37.79
4143;BME280;2085;51.052;6.958;2022-09-02T13:53:57;100926.00;;;27.41;37.52